sensor_id;sensor_type;location;lat;lon;timestamp;pressure;altitude;pressure_sealevel;temperature;humidity
23899;BME280;20544;50.018;20.010;2022-11-11T00:02:28;100250.81;;;6.91;100.00
23899;BME280;20544;50.018;20.010;2022-11-11T00:06:04;100259.13;;;6.75;100.00
23899;BME280;20544;50.018;20.010;2022-11-11T00:09:39;100258.28;;;6.63;100.00
23899;BME280;20544;50.018;20.010;2022-11-11T00:13:14;100259.97;;;6.53;100.00
23899;BME280;20544;50.018;20.010;2022-11-11T00:16:49;100265.94;;;6.44;100.00
23899;BME280;20544;50.018;20.010;2022-11-11T00:20:37;100264.50;;;6.28;100.00
23899;BME280;20544;50.018;20.010;2022-11-11T00:24:27;100272.48;;;6.15;100.00
23899;BME280;20544;50.018;20.010;2022-11-11T00:28:19;100269.00;;;6.04;100.00
23899;BME280;20544;50.018;20.010;2022-11-11T00:31:53;100266.92;;;5.96;100.00
23899;BME280;20544;50.018;20.010;2022-11-11T00:35:41;100278.63;;;5.92;100.00
23899;BME280;20544;50.018;20.010;2022-11-11T00:39:24;100278.38;;;5.83;100.00
23899;BME280;20544;50.018;20.010;2022-11-11T00:42:58;100280.03;;;5.73;100.00
23899;BME280;20544;50.018;20.010;2022-11-11T00:46:32;100283.44;;;5.62;100.00
23899;BME280;20544;50.018;20.010;2022-11-11T00:50:22;100278.75;;;5.55;100.00
23899;BME280;20544;50.018;20.010;2022-11-11T00:54:11;100268.30;;;5.53;100.00
23899;BME280;20544;50.018;20.010;2022-11-11T00:57:46;100271.80;;;5.54;100.00
23899;BME280;20544;50.018;20.010;2022-11-11T01:01:20;100272.63;;;5.54;100.00
23899;BME280;20544;50.018;20.010;2022-11-11T01:04:56;100265.80;;;5.51;100.00
23899;BME280;20544;50.018;20.010;2022-11-11T01:08:30;100263.61;;;5.45;100.00
23899;BME280;20544;50.018;20.010;2022-11-11T01:12:05;100254.27;;;5.41;100.00
23899;BME280;20544;50.018;20.010;2022-11-11T01:15:39;100262.91;;;5.43;100.00
23899;BME280;20544;50.018;20.010;2022-11-11T01:19:15;100256.61;;;5.33;100.00
23899;BME280;20544;50.018;20.010;2022-11-11T01:22:50;100258.00;;;5.26;100.00
23899;BME280;20544;50.018;20.010;2022-11-11T01:26:25;100252.03;;;5.24;100.00
23899;BME280;20544;50.018;20.010;2022-11-11T01:30:02;100248.46;;;5.25;100.00
23899;BME280;20544;50.018;20.010;2022-11-11T01:33:40;100246.77;;;5.24;100.00
23899;BME280;20544;50.018;20.010;2022-11-11T01:37:14;100255.61;;;5.23;100.00
23899;BME280;20544;50.018;20.010;2022-11-11T01:40:49;100257.30;;;5.24;100.00
23899;BME280;20544;50.018;20.010;2022-11-11T01:47:38;100250.86;;;5.28;100.00
23899;BME280;20544;50.018;20.010;2022-11-11T01:51:36;100249.41;;;5.24;100.00
23899;BME280;20544;50.018;20.010;2022-11-11T01:55:14;100259.69;;;5.27;100.00
23899;BME280;20544;50.018;20.010;2022-11-11T02:02:11;100261.17;;;5.31;100.00
23899;BME280;20544;50.018;20.010;2022-11-11T02:05:48;100267.88;;;5.35;100.00
23899;BME280;20544;50.018;20.010;2022-11-11T02:09:24;100263.56;;;5.34;100.00
23899;BME280;20544;50.018;20.010;2022-11-11T02:12:58;100262.00;;;5.31;100.00
23899;BME280;20544;50.018;20.010;2022-11-11T02:16:47;100271.13;;;5.39;100.00
23899;BME280;20544;50.018;20.010;2022-11-11T02:20:26;100266.66;;;5.52;100.00
23899;BME280;20544;50.018;20.010;2022-11-11T02:24:06;100274.14;;;5.70;100.00
23899;BME280;20544;50.018;20.010;2022-11-11T02:27:45;100277.03;;;5.78;100.00
23899;BME280;20544;50.018;20.010;2022-11-11T02:31:26;100279.81;;;5.88;100.00
23899;BME280;20544;50.018;20.010;2022-11-11T02:35:04;100281.69;;;5.98;100.00
23899;BME280;20544;50.018;20.010;2022-11-11T02:38:41;100281.83;;;6.08;100.00
23899;BME280;20544;50.018;20.010;2022-11-11T02:42:17;100291.53;;;6.19;100.00
23899;BME280;20544;50.018;20.010;2022-11-11T02:45:53;100287.83;;;6.22;100.00
23899;BME280;20544;50.018;20.010;2022-11-11T02:49:27;100290.60;;;6.31;100.00
23899;BME280;20544;50.018;20.010;2022-11-11T02:53:01;100289.91;;;6.41;100.00
23899;BME280;20544;50.018;20.010;2022-11-11T02:56:35;100301.42;;;6.51;100.00
23899;BME280;20544;50.018;20.010;2022-11-11T03:00:20;100303.45;;;6.59;100.00
23899;BME280;20544;50.018;20.010;2022-11-11T03:03:55;100301.20;;;6.66;100.00
23899;BME280;20544;50.018;20.010;2022-11-11T03:07:29;100310.28;;;6.73;100.00
23899;BME280;20544;50.018;20.010;2022-11-11T03:11:03;100307.30;;;6.77;100.00
23899;BME280;20544;50.018;20.010;2022-11-11T03:17:52;100297.95;;;6.73;100.00
23899;BME280;20544;50.018;20.010;2022-11-11T03:21:27;100290.65;;;6.77;100.00
23899;BME280;20544;50.018;20.010;2022-11-11T03:25:04;100296.40;;;6.82;100.00
23899;BME280;20544;50.018;20.010;2022-11-11T03:32:09;100288.00;;;6.88;100.00
23899;BME280;20544;50.018;20.010;2022-11-11T03:35:45;100305.98;;;6.94;100.00
23899;BME280;20544;50.018;20.010;2022-11-11T03:39:20;100302.86;;;7.01;100.00
23899;BME280;20544;50.018;20.010;2022-11-11T03:42:54;100296.37;;;7.05;100.00
23899;BME280;20544;50.018;20.010;2022-11-11T03:46:30;100286.77;;;7.04;100.00
23899;BME280;20544;50.018;20.010;2022-11-11T03:50:05;100287.50;;;7.06;100.00
23899;BME280;20544;50.018;20.010;2022-11-11T03:53:40;100293.38;;;7.09;100.00
23899;BME280;20544;50.018;20.010;2022-11-11T03:57:14;100287.97;;;7.11;100.00
23899;BME280;20544;50.018;20.010;2022-11-11T04:01:01;100291.56;;;7.10;100.00
23899;BME280;20544;50.018;20.010;2022-11-11T04:04:37;100296.84;;;7.10;100.00
23899;BME280;20544;50.018;20.010;2022-11-11T04:08:25;100296.34;;;7.16;100.00
23899;BME280;20544;50.018;20.010;2022-11-11T04:12:13;100303.08;;;7.20;100.00
23899;BME280;20544;50.018;20.010;2022-11-11T04:15:47;100284.34;;;7.23;100.00
23899;BME280;20544;50.018;20.010;2022-11-11T04:19:34;100289.95;;;7.30;100.00
23899;BME280;20544;50.018;20.010;2022-11-11T04:23:34;100284.58;;;7.32;100.00
23899;BME280;20544;50.018;20.010;2022-11-11T04:27:10;100278.91;;;7.36;100.00
23899;BME280;20544;50.018;20.010;2022-11-11T04:30:46;100284.77;;;7.40;100.00
23899;BME280;20544;50.018;20.010;2022-11-11T04:34:19;100285.63;;;7.40;100.00
23899;BME280;20544;50.018;20.010;2022-11-11T04:37:54;100291.61;;;7.42;100.00
23899;BME280;20544;50.018;20.010;2022-11-11T04:41:30;100286.23;;;7.44;100.00
23899;BME280;20544;50.018;20.010;2022-11-11T04:45:08;100277.21;;;7.47;100.00
23899;BME280;20544;50.018;20.010;2022-11-11T04:48:58;100288.47;;;7.49;100.00
23899;BME280;20544;50.018;20.010;2022-11-11T04:52:32;100297.74;;;7.43;100.00
23899;BME280;20544;50.018;20.010;2022-11-11T04:56:07;100291.14;;;7.37;100.00
23899;BME280;20544;50.018;20.010;2022-11-11T04:59:56;100303.91;;;7.21;100.00
23899;BME280;20544;50.018;20.010;2022-11-11T05:03:30;100300.56;;;7.07;100.00
23899;BME280;20544;50.018;20.010;2022-11-11T05:07:04;100302.27;;;6.97;100.00
23899;BME280;20544;50.018;20.010;2022-11-11T05:10:52;100310.31;;;6.84;100.00
23899;BME280;20544;50.018;20.010;2022-11-11T05:14:28;100324.80;;;6.90;100.00
23899;BME280;20544;50.018;20.010;2022-11-11T05:18:16;100342.66;;;6.86;100.00
23899;BME280;20544;50.018;20.010;2022-11-11T05:22:10;100327.09;;;6.72;100.00
23899;BME280;20544;50.018;20.010;2022-11-11T05:25:46;100327.79;;;6.62;100.00
23899;BME280;20544;50.018;20.010;2022-11-11T05:29:21;100334.39;;;6.57;100.00
23899;BME280;20544;50.018;20.010;2022-11-11T05:32:55;100332.11;;;6.52;100.00
23899;BME280;20544;50.018;20.010;2022-11-11T05:36:29;100340.37;;;6.59;100.00
23899;BME280;20544;50.018;20.010;2022-11-11T05:40:04;100344.94;;;6.57;100.00
23899;BME280;20544;50.018;20.010;2022-11-11T05:50:12;100346.34;;;6.38;100.00
23899;BME280;20544;50.018;20.010;2022-11-11T05:53:47;100350.75;;;6.38;100.00
23899;BME280;20544;50.018;20.010;2022-11-11T05:57:20;100359.61;;;6.37;100.00
23899;BME280;20544;50.018;20.010;2022-11-11T06:00:55;100367.30;;;6.40;100.00
23899;BME280;20544;50.018;20.010;2022-11-11T06:04:29;100368.50;;;6.36;100.00
23899;BME280;20544;50.018;20.010;2022-11-11T06:08:03;100367.89;;;6.32;100.00
23899;BME280;20544;50.018;20.010;2022-11-11T06:11:38;100368.11;;;6.29;100.00
23899;BME280;20544;50.018;20.010;2022-11-11T06:15:13;100372.09;;;6.35;100.00
23899;BME280;20544;50.018;20.010;2022-11-11T06:18:48;100369.94;;;6.40;100.00
23899;BME280;20544;50.018;20.010;2022-11-11T06:22:22;100363.84;;;6.39;100.00
23899;BME280;20544;50.018;20.010;2022-11-11T06:26:08;100368.41;;;6.48;100.00
23899;BME280;20544;50.018;20.010;2022-11-11T06:29:45;100358.83;;;6.59;100.00
23899;BME280;20544;50.018;20.010;2022-11-11T06:33:21;100365.19;;;6.68;100.00
23899;BME280;20544;50.018;20.010;2022-11-11T06:36:55;100367.84;;;6.79;100.00
23899;BME280;20544;50.018;20.010;2022-11-11T06:40:30;100371.33;;;6.91;100.00
23899;BME280;20544;50.018;20.010;2022-11-11T06:44:04;100382.14;;;6.99;100.00
23899;BME280;20544;50.018;20.010;2022-11-11T06:47:39;100373.63;;;7.07;100.00
23899;BME280;20544;50.018;20.010;2022-11-11T06:51:15;100363.53;;;7.12;100.00
23899;BME280;20544;50.018;20.010;2022-11-11T06:54:49;100360.16;;;7.21;100.00
23899;BME280;20544;50.018;20.010;2022-11-11T06:58:23;100371.69;;;7.32;100.00
23899;BME280;20544;50.018;20.010;2022-11-11T07:01:57;100373.34;;;7.44;100.00
23899;BME280;20544;50.018;20.010;2022-11-11T07:05:31;100375.02;;;7.56;100.00
23899;BME280;20544;50.018;20.010;2022-11-11T07:09:09;100379.41;;;7.67;100.00
23899;BME280;20544;50.018;20.010;2022-11-11T07:12:43;100382.01;;;7.78;100.00
23899;BME280;20544;50.018;20.010;2022-11-11T07:16:17;100384.75;;;7.88;100.00
23899;BME280;20544;50.018;20.010;2022-11-11T07:19:50;100381.37;;;7.98;100.00
23899;BME280;20544;50.018;20.010;2022-11-11T07:23:25;100365.70;;;8.06;100.00
23899;BME280;20544;50.018;20.010;2022-11-11T07:27:00;100361.08;;;8.19;100.00
23899;BME280;20544;50.018;20.010;2022-11-11T07:30:36;100371.35;;;8.34;100.00
23899;BME280;20544;50.018;20.010;2022-11-11T07:34:16;100373.69;;;8.48;100.00
23899;BME280;20544;50.018;20.010;2022-11-11T07:37:50;100356.20;;;8.57;100.00
23899;BME280;20544;50.018;20.010;2022-11-11T07:41:24;100362.93;;;8.61;100.00
23899;BME280;20544;50.018;20.010;2022-11-11T07:44:57;100365.73;;;8.69;100.00
23899;BME280;20544;50.018;20.010;2022-11-11T07:48:31;100363.42;;;8.76;100.00
23899;BME280;20544;50.018;20.010;2022-11-11T07:52:05;100369.84;;;8.83;100.00
23899;BME280;20544;50.018;20.010;2022-11-11T07:55:40;100369.20;;;8.91;100.00
23899;BME280;20544;50.018;20.010;2022-11-11T07:59:14;100367.57;;;9.00;100.00
23899;BME280;20544;50.018;20.010;2022-11-11T08:02:51;100349.19;;;9.08;100.00
23899;BME280;20544;50.018;20.010;2022-11-11T08:06:27;100345.08;;;9.25;100.00
23899;BME280;20544;50.018;20.010;2022-11-11T08:10:04;100339.44;;;9.69;100.00
23899;BME280;20544;50.018;20.010;2022-11-11T08:13:40;100334.00;;;10.29;100.00
23899;BME280;20544;50.018;20.010;2022-11-11T08:17:18;100336.88;;;10.65;100.00
23899;BME280;20544;50.018;20.010;2022-11-11T08:20:55;100338.03;;;10.91;100.00
23899;BME280;20544;50.018;20.010;2022-11-11T08:24:34;100345.06;;;11.10;100.00
23899;BME280;20544;50.018;20.010;2022-11-11T08:28:10;100345.74;;;11.40;100.00
23899;BME280;20544;50.018;20.010;2022-11-11T08:31:44;100360.34;;;11.54;100.00
23899;BME280;20544;50.018;20.010;2022-11-11T08:35:18;100368.56;;;11.78;100.00
23899;BME280;20544;50.018;20.010;2022-11-11T08:38:53;100365.80;;;11.98;100.00
23899;BME280;20544;50.018;20.010;2022-11-11T08:42:27;100370.72;;;12.11;100.00
23899;BME280;20544;50.018;20.010;2022-11-11T08:46:03;100377.10;;;12.18;100.00
23899;BME280;20544;50.018;20.010;2022-11-11T08:49:38;100366.67;;;12.25;100.00
23899;BME280;20544;50.018;20.010;2022-11-11T08:56:54;100383.22;;;12.55;100.00
23899;BME280;20544;50.018;20.010;2022-11-11T09:06:38;100391.94;;;12.65;100.00
23899;BME280;20544;50.018;20.010;2022-11-11T09:15:48;100372.51;;;12.73;100.00
23899;BME280;20544;50.018;20.010;2022-11-11T09:19:58;100368.06;;;12.82;100.00
23899;BME280;20544;50.018;20.010;2022-11-11T09:23:35;100364.77;;;12.88;100.00
23899;BME280;20544;50.018;20.010;2022-11-11T09:27:10;100354.80;;;12.90;100.00
23899;BME280;20544;50.018;20.010;2022-11-11T09:30:47;100377.92;;;12.89;100.00
23899;BME280;20544;50.018;20.010;2022-11-11T09:38:39;100390.94;;;12.92;100.00
23899;BME280;20544;50.018;20.010;2022-11-11T09:42:16;100385.09;;;12.89;100.00
23899;BME280;20544;50.018;20.010;2022-11-11T09:46:00;100369.77;;;12.91;100.00
23899;BME280;20544;50.018;20.010;2022-11-11T09:50:04;100383.25;;;12.89;100.00
23899;BME280;20544;50.018;20.010;2022-11-11T09:53:46;100387.69;;;12.81;100.00
23899;BME280;20544;50.018;20.010;2022-11-11T09:57:28;100370.53;;;12.75;100.00
23899;BME280;20544;50.018;20.010;2022-11-11T10:01:09;100364.36;;;12.74;100.00
23899;BME280;20544;50.018;20.010;2022-11-11T10:04:51;100383.69;;;12.76;100.00
23899;BME280;20544;50.018;20.010;2022-11-11T10:08:33;100390.98;;;12.74;100.00
23899;BME280;20544;50.018;20.010;2022-11-11T10:12:12;100380.76;;;12.61;100.00
23899;BME280;20544;50.018;20.010;2022-11-11T10:15:53;100379.61;;;12.64;100.00
23899;BME280;20544;50.018;20.010;2022-11-11T10:19:36;100375.23;;;12.55;100.00
23899;BME280;20544;50.018;20.010;2022-11-11T10:23:16;100374.48;;;12.71;100.00
23899;BME280;20544;50.018;20.010;2022-11-11T10:26:52;100365.46;;;12.90;100.00
23899;BME280;20544;50.018;20.010;2022-11-11T10:30:28;100372.83;;;13.04;100.00
23899;BME280;20544;50.018;20.010;2022-11-11T10:34:08;100369.30;;;12.95;100.00
23899;BME280;20544;50.018;20.010;2022-11-11T10:37:44;100367.10;;;12.91;100.00
23899;BME280;20544;50.018;20.010;2022-11-11T10:41:21;100364.30;;;12.92;100.00
23899;BME280;20544;50.018;20.010;2022-11-11T10:45:00;100369.11;;;12.89;100.00
23899;BME280;20544;50.018;20.010;2022-11-11T10:48:44;100374.73;;;12.86;100.00
23899;BME280;20544;50.018;20.010;2022-11-11T10:52:24;100367.27;;;12.89;100.00
23899;BME280;20544;50.018;20.010;2022-11-11T10:56:03;100363.86;;;13.05;100.00
23899;BME280;20544;50.018;20.010;2022-11-11T10:59:48;100359.50;;;12.96;100.00
23899;BME280;20544;50.018;20.010;2022-11-11T11:03:26;100347.36;;;13.02;100.00
23899;BME280;20544;50.018;20.010;2022-11-11T11:07:05;100344.70;;;13.02;100.00
23899;BME280;20544;50.018;20.010;2022-11-11T11:10:44;100340.92;;;13.13;100.00
23899;BME280;20544;50.018;20.010;2022-11-11T11:14:26;100331.81;;;13.23;100.00
23899;BME280;20544;50.018;20.010;2022-11-11T11:18:03;100325.63;;;13.23;100.00
23899;BME280;20544;50.018;20.010;2022-11-11T11:21:53;100320.13;;;13.24;100.00
23899;BME280;20544;50.018;20.010;2022-11-11T11:25:29;100321.63;;;13.27;100.00
23899;BME280;20544;50.018;20.010;2022-11-11T11:29:04;100328.33;;;13.31;100.00
23899;BME280;20544;50.018;20.010;2022-11-11T11:32:38;100318.19;;;13.35;100.00
23899;BME280;20544;50.018;20.010;2022-11-11T11:36:17;100316.88;;;13.39;100.00
23899;BME280;20544;50.018;20.010;2022-11-11T11:40:00;100312.38;;;13.39;100.00
23899;BME280;20544;50.018;20.010;2022-11-11T11:43:39;100286.23;;;13.43;100.00
23899;BME280;20544;50.018;20.010;2022-11-11T11:47:24;100294.42;;;13.50;100.00
23899;BME280;20544;50.018;20.010;2022-11-11T11:51:10;100314.25;;;13.47;100.00
23899;BME280;20544;50.018;20.010;2022-11-11T11:54:57;100315.23;;;13.46;100.00
23899;BME280;20544;50.018;20.010;2022-11-11T11:58:39;100308.57;;;13.50;100.00
23899;BME280;20544;50.018;20.010;2022-11-11T12:02:30;100320.23;;;13.49;100.00
23899;BME280;20544;50.018;20.010;2022-11-11T12:06:16;100320.09;;;13.51;100.00
23899;BME280;20544;50.018;20.010;2022-11-11T12:10:00;100322.08;;;13.49;100.00
23899;BME280;20544;50.018;20.010;2022-11-11T12:13:43;100320.23;;;13.41;100.00
23899;BME280;20544;50.018;20.010;2022-11-11T12:17:31;100318.83;;;13.37;100.00
23899;BME280;20544;50.018;20.010;2022-11-11T12:21:13;100317.50;;;13.33;98.25
23899;BME280;20544;50.018;20.010;2022-11-11T12:24:52;100304.18;;;13.33;99.49
23899;BME280;20544;50.018;20.010;2022-11-11T12:28:48;100300.01;;;13.30;98.96
23899;BME280;20544;50.018;20.010;2022-11-11T12:32:36;100283.03;;;13.31;100.00
23899;BME280;20544;50.018;20.010;2022-11-11T12:36:27;100290.17;;;13.31;100.00
23899;BME280;20544;50.018;20.010;2022-11-11T12:40:18;100285.19;;;13.27;100.00
23899;BME280;20544;50.018;20.010;2022-11-11T12:44:09;100299.67;;;13.25;100.00
23899;BME280;20544;50.018;20.010;2022-11-11T12:47:44;100307.14;;;13.21;100.00
23899;BME280;20544;50.018;20.010;2022-11-11T12:51:30;100302.98;;;13.19;100.00
23899;BME280;20544;50.018;20.010;2022-11-11T12:55:17;100298.81;;;13.16;100.00
23899;BME280;20544;50.018;20.010;2022-11-11T12:58:58;100295.46;;;13.14;100.00
23899;BME280;20544;50.018;20.010;2022-11-11T13:06:58;100283.47;;;13.10;100.00
23899;BME280;20544;50.018;20.010;2022-11-11T13:10:55;100271.14;;;13.09;100.00
23899;BME280;20544;50.018;20.010;2022-11-11T13:14:53;100273.63;;;13.02;100.00
23899;BME280;20544;50.018;20.010;2022-11-11T13:18:50;100273.12;;;12.99;100.00
23899;BME280;20544;50.018;20.010;2022-11-11T13:22:39;100273.90;;;12.91;100.00
23899;BME280;20544;50.018;20.010;2022-11-11T13:34:26;100269.55;;;12.82;100.00
23899;BME280;20544;50.018;20.010;2022-11-11T13:38:32;100259.89;;;12.81;100.00
23899;BME280;20544;50.018;20.010;2022-11-11T13:42:24;100257.05;;;12.74;100.00
23899;BME280;20544;50.018;20.010;2022-11-11T13:46:28;100257.21;;;12.72;100.00
23899;BME280;20544;50.018;20.010;2022-11-11T13:50:21;100255.70;;;12.70;100.00
23899;BME280;20544;50.018;20.010;2022-11-11T13:53:57;100251.84;;;12.64;100.00
23899;BME280;20544;50.018;20.010;2022-11-11T13:57:47;100252.31;;;12.59;100.00
23899;BME280;20544;50.018;20.010;2022-11-11T14:01:17;100252.01;;;12.62;100.00
23899;BME280;20544;50.018;20.010;2022-11-11T14:13:42;100268.78;;;12.55;100.00
23899;BME280;20544;50.018;20.010;2022-11-11T14:17:17;100266.12;;;12.55;100.00
23899;BME280;20544;50.018;20.010;2022-11-11T14:20:53;100278.38;;;12.48;100.00
23899;BME280;20544;50.018;20.010;2022-11-11T14:24:40;100279.83;;;12.42;100.00
23899;BME280;20544;50.018;20.010;2022-11-11T14:28:25;100277.63;;;12.37;100.00
23899;BME280;20544;50.018;20.010;2022-11-11T14:32:09;100286.92;;;12.33;100.00
23899;BME280;20544;50.018;20.010;2022-11-11T14:36:06;100280.72;;;12.24;100.00
23899;BME280;20544;50.018;20.010;2022-11-11T14:39:46;100289.94;;;12.12;100.00
23899;BME280;20544;50.018;20.010;2022-11-11T14:43:39;100286.72;;;12.00;100.00
23899;BME280;20544;50.018;20.010;2022-11-11T14:47:29;100293.77;;;11.91;100.00
23899;BME280;20544;50.018;20.010;2022-11-11T14:55:26;100285.78;;;11.73;100.00
23899;BME280;20544;50.018;20.010;2022-11-11T15:13:16;100287.55;;;11.46;100.00
23899;BME280;20544;50.018;20.010;2022-11-11T15:24:23;100291.84;;;11.29;100.00
23899;BME280;20544;50.018;20.010;2022-11-11T15:29:11;100293.58;;;11.21;100.00
23899;BME280;20544;50.018;20.010;2022-11-11T15:38:26;100293.30;;;10.96;100.00
23899;BME280;20544;50.018;20.010;2022-11-11T15:42:03;100298.06;;;10.92;100.00
23899;BME280;20544;50.018;20.010;2022-11-11T15:45:41;100302.27;;;10.85;100.00
23899;BME280;20544;50.018;20.010;2022-11-11T15:49:39;100295.36;;;10.74;100.00
23899;BME280;20544;50.018;20.010;2022-11-11T15:53:21;100300.94;;;10.71;100.00
23899;BME280;20544;50.018;20.010;2022-11-11T15:56:56;100300.82;;;10.63;100.00
23899;BME280;20544;50.018;20.010;2022-11-11T16:00:36;100302.65;;;10.62;100.00
23899;BME280;20544;50.018;20.010;2022-11-11T16:04:20;100301.27;;;10.58;100.00
23899;BME280;20544;50.018;20.010;2022-11-11T16:08:00;100305.17;;;10.54;100.00
23899;BME280;20544;50.018;20.010;2022-11-11T16:11:39;100310.23;;;10.47;100.00
23899;BME280;20544;50.018;20.010;2022-11-11T16:15:21;100318.62;;;10.43;100.00
23899;BME280;20544;50.018;20.010;2022-11-11T16:18:59;100306.63;;;10.39;100.00
23899;BME280;20544;50.018;20.010;2022-11-11T16:22:39;100295.20;;;10.38;100.00
23899;BME280;20544;50.018;20.010;2022-11-11T16:26:16;100289.59;;;10.41;100.00
23899;BME280;20544;50.018;20.010;2022-11-11T16:29:51;100284.84;;;10.45;100.00
23899;BME280;20544;50.018;20.010;2022-11-11T16:33:36;100287.89;;;10.50;100.00
23899;BME280;20544;50.018;20.010;2022-11-11T16:37:19;100299.35;;;10.50;100.00
23899;BME280;20544;50.018;20.010;2022-11-11T16:40:59;100299.59;;;10.57;100.00
23899;BME280;20544;50.018;20.010;2022-11-11T16:44:42;100295.42;;;10.55;100.00
23899;BME280;20544;50.018;20.010;2022-11-11T16:52:26;100306.61;;;10.48;100.00
23899;BME280;20544;50.018;20.010;2022-11-11T16:56:01;100305.23;;;10.44;100.00
23899;BME280;20544;50.018;20.010;2022-11-11T16:59:41;100307.88;;;10.34;100.00
23899;BME280;20544;50.018;20.010;2022-11-11T17:03:21;100304.67;;;10.31;100.00
23899;BME280;20544;50.018;20.010;2022-11-11T17:06:58;100305.49;;;10.31;100.00
23899;BME280;20544;50.018;20.010;2022-11-11T17:10:38;100298.39;;;10.32;100.00
23899;BME280;20544;50.018;20.010;2022-11-11T17:14:13;100304.67;;;10.31;100.00
23899;BME280;20544;50.018;20.010;2022-11-11T17:17:48;100298.81;;;10.27;100.00
23899;BME280;20544;50.018;20.010;2022-11-11T17:21:23;100297.85;;;10.18;100.00
23899;BME280;20544;50.018;20.010;2022-11-11T17:24:58;100297.85;;;10.18;100.00
23899;BME280;20544;50.018;20.010;2022-11-11T17:28:34;100297.30;;;10.15;100.00
23899;BME280;20544;50.018;20.010;2022-11-11T17:32:09;100299.69;;;10.08;100.00
23899;BME280;20544;50.018;20.010;2022-11-11T17:35:52;100302.61;;;10.05;100.00
23899;BME280;20544;50.018;20.010;2022-11-11T17:39:28;100304.55;;;10.03;100.00
23899;BME280;20544;50.018;20.010;2022-11-11T17:43:02;100299.95;;;10.05;100.00
23899;BME280;20544;50.018;20.010;2022-11-11T17:46:37;100294.66;;;10.05;100.00
23899;BME280;20544;50.018;20.010;2022-11-11T17:50:12;100300.11;;;10.03;100.00
23899;BME280;20544;50.018;20.010;2022-11-11T17:53:46;100297.31;;;10.05;100.00
23899;BME280;20544;50.018;20.010;2022-11-11T17:57:22;100299.41;;;10.01;100.00
23899;BME280;20544;50.018;20.010;2022-11-11T18:01:04;100293.28;;;10.01;100.00
23899;BME280;20544;50.018;20.010;2022-11-11T18:04:41;100299.70;;;9.98;100.00
23899;BME280;20544;50.018;20.010;2022-11-11T18:08:16;100302.05;;;9.92;100.00
23899;BME280;20544;50.018;20.010;2022-11-11T18:11:57;100303.17;;;9.89;100.00
23899;BME280;20544;50.018;20.010;2022-11-11T18:15:34;100303.33;;;9.87;100.00
23899;BME280;20544;50.018;20.010;2022-11-11T18:19:09;100297.20;;;9.87;100.00
23899;BME280;20544;50.018;20.010;2022-11-11T18:25:54;100304.85;;;9.80;100.00
23899;BME280;20544;50.018;20.010;2022-11-11T18:29:30;100307.36;;;9.82;100.00
23899;BME280;20544;50.018;20.010;2022-11-11T18:33:04;100315.04;;;9.75;100.00
23899;BME280;20544;50.018;20.010;2022-11-11T18:36:40;100311.97;;;9.70;100.00
23899;BME280;20544;50.018;20.010;2022-11-11T18:40:22;100313.91;;;9.68;100.00
23899;BME280;20544;50.018;20.010;2022-11-11T18:43:59;100313.50;;;9.63;100.00
23899;BME280;20544;50.018;20.010;2022-11-11T18:47:41;100321.59;;;9.61;100.00
23899;BME280;20544;50.018;20.010;2022-11-11T18:51:25;100332.59;;;9.57;100.00
23899;BME280;20544;50.018;20.010;2022-11-11T18:55:03;100330.08;;;9.55;100.00
23899;BME280;20544;50.018;20.010;2022-11-11T18:58:39;100328.15;;;9.57;100.00
23899;BME280;20544;50.018;20.010;2022-11-11T19:02:18;100314.05;;;9.57;100.00
23899;BME280;20544;50.018;20.010;2022-11-11T19:05:53;100317.27;;;9.60;100.00
23899;BME280;20544;50.018;20.010;2022-11-11T19:09:36;100322.30;;;9.63;100.00
23899;BME280;20544;50.018;20.010;2022-11-11T19:13:11;100326.74;;;9.63;100.00
23899;BME280;20544;50.018;20.010;2022-11-11T19:16:46;100331.33;;;9.61;100.00
23899;BME280;20544;50.018;20.010;2022-11-11T19:20:26;100331.78;;;9.66;100.00
23899;BME280;20544;50.018;20.010;2022-11-11T19:24:03;100330.78;;;9.67;100.00
23899;BME280;20544;50.018;20.010;2022-11-11T19:27:41;100339.84;;;9.64;100.00
23899;BME280;20544;50.018;20.010;2022-11-11T19:31:18;100340.95;;;9.62;100.00
23899;BME280;20544;50.018;20.010;2022-11-11T19:34:54;100345.58;;;9.60;100.00
23899;BME280;20544;50.018;20.010;2022-11-11T19:38:30;100341.25;;;9.59;100.00
23899;BME280;20544;50.018;20.010;2022-11-11T19:42:05;100343.89;;;9.59;100.00
23899;BME280;20544;50.018;20.010;2022-11-11T19:45:44;100359.22;;;9.55;100.00
23899;BME280;20544;50.018;20.010;2022-11-11T19:49:19;100358.41;;;9.54;100.00
23899;BME280;20544;50.018;20.010;2022-11-11T19:52:55;100358.41;;;9.54;100.00
23899;BME280;20544;50.018;20.010;2022-11-11T19:56:38;100356.41;;;9.47;100.00
23899;BME280;20544;50.018;20.010;2022-11-11T20:00:15;100349.30;;;9.37;100.00
23899;BME280;20544;50.018;20.010;2022-11-11T20:03:56;100346.25;;;9.42;100.00
23899;BME280;20544;50.018;20.010;2022-11-11T20:07:41;100346.08;;;9.34;100.00
23899;BME280;20544;50.018;20.010;2022-11-11T20:11:16;100335.31;;;9.26;100.00
23899;BME280;20544;50.018;20.010;2022-11-11T20:14:52;100355.67;;;9.25;100.00
23899;BME280;20544;50.018;20.010;2022-11-11T20:18:30;100332.66;;;9.26;100.00
23899;BME280;20544;50.018;20.010;2022-11-11T20:22:05;100341.25;;;9.08;100.00
23899;BME280;20544;50.018;20.010;2022-11-11T20:25:39;100340.29;;;9.09;100.00